Time;durP1;ratioP1;P1;durP2;ratioP2;P2;SDS_P1;SDS_P2;PMS_P1;PMS_P2;Temp;Humidity;BMP_temperature;BMP_pressure;BME280_temperature;BME280_humidity;BME280_pressure;Samples;Min_cycle;Max_cycle;Signal;HPM_P1;HPM_P2
2021/11/11 00:00:47;;;;;;;19.13;14.07;;;14.10;82.40;;;;;;5051418;28;20039;-56
2021/11/11 00:03:12;;;;;;;17.58;13.45;;;14.30;82.00;;;;;;5045912;28;20033;-58
2021/11/11 00:05:39;;;;;;;18.15;13.80;;;14.20;81.80;;;;;;5042117;28;20500;-56
2021/11/11 00:08:05;;;;;;;18.63;13.10;;;14.30;81.80;;;;;;5043876;28;20033;-56
2021/11/11 00:10:32;;;;;;;14.98;12.18;;;14.20;82.40;;;;;;5045678;28;20029;-56
2021/11/11 00:12:59;;;;;;;14.57;12.75;;;14.20;82.40;;;;;;5042619;28;20017;-56
2021/11/11 00:15:25;;;;;;;17.05;13.32;;;14.20;82.20;;;;;;5049233;28;20025;-56
2021/11/11 00:17:52;;;;;;;14.07;12.35;;;14.20;82.00;;;;;;5050161;28;20108;-56
2021/11/11 00:20:24;;;;;;;17.75;14.02;;;14.20;82.30;;;;;;5046675;28;20110;-53
2021/11/11 00:22:50;;;;;;;18.83;14.13;;;14.10;82.30;;;;;;5047751;28;20108;-57
2021/11/11 00:25:18;;;;;;;18.92;13.45;;;14.20;81.80;;;;;;5043146;28;20124;-57
2021/11/11 00:27:44;;;;;;;13.85;12.23;;;14.10;82.60;;;;;;5046651;28;20041;-57
2021/11/11 00:30:13;;;;;;;18.05;12.68;;;14.20;82.20;;;;;;5044858;28;20029;-57
2021/11/11 00:32:40;;;;;;;16.25;12.93;;;14.20;81.60;;;;;;5044287;28;20499;-53
2021/11/11 00:35:17;;;;;;;17.20;12.63;;;14.20;82.20;;;;;;5049895;28;20033;-55
2021/11/11 00:37:44;;;;;;;14.93;12.50;;;14.30;82.00;;;;;;5045579;28;20029;-56
2021/11/11 00:40:12;;;;;;;17.27;13.50;;;14.30;81.90;;;;;;5045333;28;20072;-56
2021/11/11 00:42:38;;;;;;;17.85;13.50;;;14.40;81.80;;;;;;5051831;28;20029;-55
2021/11/11 00:45:04;;;;;;;15.68;12.20;;;14.30;80.90;;;;;;5047577;28;20382;-53
2021/11/11 00:47:31;;;;;;;16.95;13.05;;;14.30;81.80;;;;;;5045687;28;20021;-56
2021/11/11 00:49:56;;;;;;;19.42;13.90;;;14.30;82.10;;;;;;5042371;28;20032;-55
2021/11/11 00:52:22;;;;;;;20.70;14.32;;;14.40;81.60;;;;;;5044581;28;20022;-55
2021/11/11 00:54:51;;;;;;;19.60;15.32;;;14.30;81.30;;;;;;5049144;28;20368;-56
2021/11/11 00:57:16;;;;;;;24.25;16.85;;;14.40;81.20;;;;;;5046044;28;20113;-54
2021/11/11 00:59:42;;;;;;;25.90;17.30;;;14.30;79.90;;;;;;5048692;28;20116;-56
2021/11/11 01:02:10;;;;;;;22.40;16.00;;;14.30;78.90;;;;;;5048977;28;20108;-55
2021/11/11 01:04:38;;;;;;;24.23;16.20;;;14.30;79.10;;;;;;5048096;28;20510;-55
2021/11/11 01:07:07;;;;;;;18.95;16.13;;;14.30;78.50;;;;;;5042207;28;20025;-56
2021/11/11 01:09:34;;;;;;;23.80;16.90;;;14.30;78.30;;;;;;5042462;28;20026;-55
2021/11/11 01:12:00;;;;;;;22.63;17.10;;;14.30;77.90;;;;;;5044331;28;20017;-56
2021/11/11 01:14:26;;;;;;;28.27;17.90;;;14.30;77.90;;;;;;5046379;28;20555;-56
2021/11/11 01:16:53;;;;;;;22.45;17.25;;;14.30;77.60;;;;;;5047740;28;20418;-55
2021/11/11 01:19:19;;;;;;;21.10;16.38;;;14.30;77.30;;;;;;5050113;28;20051;-54
2021/11/11 01:21:45;;;;;;;22.85;16.55;;;14.30;77.70;;;;;;5043172;28;20025;-57
2021/11/11 01:24:11;;;;;;;26.58;17.60;;;14.30;77.40;;;;;;5039979;28;20037;-57
2021/11/11 01:26:36;;;;;;;26.98;16.98;;;14.40;77.50;;;;;;5042669;28;20067;-57
2021/11/11 01:29:02;;;;;;;23.42;16.60;;;14.40;77.10;;;;;;5044720;28;20056;-57
2021/11/11 01:31:28;;;;;;;23.15;16.88;;;14.40;77.00;;;;;;5047908;28;20107;-55
2021/11/11 01:33:54;;;;;;;26.75;16.58;;;14.40;76.70;;;;;;5049390;28;20119;-56
2021/11/11 01:36:19;;;;;;;19.95;16.35;;;14.20;76.70;;;;;;5043324;28;20040;-55
2021/11/11 01:38:45;;;;;;;23.27;17.65;;;14.30;76.50;;;;;;5050609;28;20379;-56
2021/11/11 01:41:11;;;;;;;21.55;16.60;;;14.40;77.00;;;;;;5041723;28;20029;-56
2021/11/11 01:43:37;;;;;;;23.38;16.08;;;14.40;76.60;;;;;;5048253;28;20029;-57
2021/11/11 01:46:02;;;;;;;23.95;17.15;;;14.30;76.00;;;;;;5042556;28;20053;-57
2021/11/11 01:48:28;;;;;;;24.27;16.77;;;14.40;76.60;;;;;;5046066;28;20363;-56
2021/11/11 01:54:18;;;;;;;22.40;14.90;;;14.30;75.40;;;;;;5048028;28;20024;-56
2021/11/11 01:56:44;;;;;;;22.92;16.60;;;14.30;75.90;;;;;;5044862;28;20501;-56
2021/11/11 01:59:11;;;;;;;20.15;16.17;;;14.30;76.20;;;;;;5044852;28;20043;-56
2021/11/11 02:01:37;;;;;;;24.48;15.48;;;14.30;76.50;;;;;;5045349;28;20116;-56
2021/11/11 02:04:03;;;;;;;23.05;15.60;;;14.40;77.00;;;;;;5043907;28;20034;-55
2021/11/11 02:06:28;;;;;;;23.05;16.50;;;14.40;77.20;;;;;;5041342;28;20029;-56
2021/11/11 02:08:54;;;;;;;21.20;16.27;;;14.40;77.30;;;;;;5045001;28;20486;-56
2021/11/11 02:11:23;;;;;;;21.83;16.38;;;14.40;77.70;;;;;;5043003;28;20118;-57
2021/11/11 02:13:49;;;;;;;21.25;16.80;;;14.40;79.90;;;;;;5041424;28;20037;-56
2021/11/11 02:16:16;;;;;;;20.08;14.70;;;14.20;81.30;;;;;;5047924;28;20382;-55
2021/11/11 02:18:42;;;;;;;23.13;17.17;;;14.10;83.20;;;;;;5045929;28;20075;-57
2021/11/11 02:21:08;;;;;;;25.60;17.73;;;14.00;82.70;;;;;;5047237;28;20029;-56
2021/11/11 02:23:33;;;;;;;22.55;16.80;;;14.00;87.20;;;;;;5046188;28;20100;-56
2021/11/11 02:25:59;;;;;;;19.08;16.15;;;13.90;87.40;;;;;;5044505;28;20037;-55
2021/11/11 02:28:27;;;;;;;21.52;17.23;;;13.90;85.00;;;;;;5046038;28;20024;-55
2021/11/11 02:30:54;;;;;;;20.02;16.13;;;13.80;85.00;;;;;;5048175;28;20021;-56
2021/11/11 02:33:23;;;;;;;21.15;15.75;;;13.80;85.60;;;;;;5041186;28;20029;-57
2021/11/11 02:35:49;;;;;;;20.88;16.17;;;13.80;85.00;;;;;;5040466;28;20510;-54
2021/11/11 02:38:16;;;;;;;22.65;16.63;;;13.80;85.70;;;;;;5043132;28;20060;-55
2021/11/11 02:40:42;;;;;;;22.60;17.65;;;13.70;86.50;;;;;;5050252;28;20082;-55
2021/11/11 02:43:10;;;;;;;21.88;16.50;;;13.80;85.30;;;;;;5048087;28;20080;-56
2021/11/11 02:45:39;;;;;;;19.05;16.15;;;13.90;85.00;;;;;;5046373;28;20067;-56
2021/11/11 02:48:07;;;;;;;20.58;17.00;;;14.00;85.30;;;;;;5047678;28;20025;-55
2021/11/11 02:50:33;;;;;;;20.25;15.88;;;14.00;85.00;;;;;;5050846;28;20021;-55
2021/11/11 02:52:59;;;;;;;19.00;16.27;;;13.90;84.00;;;;;;5051452;28;20025;-55
2021/11/11 02:55:26;;;;;;;24.50;17.10;;;13.90;85.10;;;;;;5051032;28;20018;-54
2021/11/11 02:57:54;;;;;;;26.55;16.85;;;13.90;84.50;;;;;;5046234;28;20391;-55
2021/11/11 03:00:32;;;;;;;24.38;16.83;;;13.80;84.80;;;;;;5051269;28;20056;-56
2021/11/11 03:02:58;;;;;;;21.48;16.08;;;13.90;83.50;;;;;;5045610;28;20292;-57
2021/11/11 03:05:29;;;;;;;25.58;17.58;;;13.90;83.60;;;;;;5047536;28;20493;-56
2021/11/11 03:07:55;;;;;;;23.88;17.33;;;13.90;84.90;;;;;;5043091;28;20545;-55
2021/11/11 03:10:24;;;;;;;21.38;16.40;;;14.00;84.10;;;;;;5048631;28;20029;-55
2021/11/11 03:12:52;;;;;;;20.63;16.42;;;14.00;83.70;;;;;;5049936;28;20040;-53
2021/11/11 03:15:18;;;;;;;20.67;16.65;;;13.90;84.90;;;;;;5045523;28;20060;-56
2021/11/11 03:17:45;;;;;;;18.73;16.48;;;13.90;85.00;;;;;;5044599;28;20112;-55
2021/11/11 03:20:12;;;;;;;20.63;16.25;;;14.00;85.80;;;;;;5047565;28;20167;-54
2021/11/11 03:22:40;;;;;;;25.35;16.50;;;14.00;85.70;;;;;;5048524;28;20033;-55
2021/11/11 03:25:07;;;;;;;19.20;15.32;;;13.90;85.20;;;;;;5048661;28;20103;-55
2021/11/11 03:27:39;;;;;;;20.70;16.85;;;13.90;85.60;;;;;;5043732;28;20482;-57
2021/11/11 03:30:10;;;;;;;20.98;16.50;;;13.90;85.20;;;;;;5047977;28;20057;-57
2021/11/11 03:32:35;;;;;;;24.88;16.80;;;13.80;85.80;;;;;;5050475;28;20028;-56
2021/11/11 03:35:02;;;;;;;21.08;15.85;;;13.80;86.20;;;;;;5048130;28;20025;-56
2021/11/11 03:37:27;;;;;;;23.33;16.70;;;13.80;86.30;;;;;;5045024;28;20170;-54
2021/11/11 03:39:53;;;;;;;23.30;17.13;;;13.70;86.80;;;;;;5046232;28;20453;-55
2021/11/11 03:42:19;;;;;;;21.92;17.02;;;13.60;86.30;;;;;;5049313;28;20023;-56
2021/11/11 03:44:45;;;;;;;23.75;16.70;;;13.70;87.00;;;;;;5046137;28;20035;-58
2021/11/11 03:47:11;;;;;;;22.98;17.33;;;13.70;86.60;;;;;;5045772;28;20021;-56
2021/11/11 03:49:38;;;;;;;22.55;17.80;;;13.70;86.40;;;;;;5051239;28;20094;-56
2021/11/11 03:52:06;;;;;;;22.85;17.20;;;13.70;86.40;;;;;;5042722;28;20395;-57
2021/11/11 03:54:50;;;;;;;19.90;17.17;;;13.70;86.30;;;;;;5049621;28;20079;-56
2021/11/11 03:57:16;;;;;;;23.23;17.38;;;13.50;87.00;;;;;;5044110;28;20035;-51
2021/11/11 03:59:42;;;;;;;25.05;17.35;;;13.70;86.60;;;;;;5044831;28;20398;-54
2021/11/11 04:02:08;;;;;;;20.50;15.95;;;13.70;86.60;;;;;;5049092;28;20033;-56
2021/11/11 04:04:34;;;;;;;22.95;18.15;;;13.60;86.90;;;;;;5046638;28;20040;-56
2021/11/11 04:07:00;;;;;;;20.73;17.45;;;13.70;86.70;;;;;;5049597;28;20475;-56
2021/11/11 04:09:26;;;;;;;19.13;15.90;;;13.90;87.10;;;;;;5046431;28;20505;-51
2021/11/11 04:11:52;;;;;;;21.33;17.05;;;13.90;84.30;;;;;;5045585;28;20021;-50
2021/11/11 04:14:18;;;;;;;19.38;17.38;;;13.80;85.40;;;;;;5053440;28;20106;-51
2021/11/11 04:16:45;;;;;;;24.38;19.10;;;13.70;86.10;;;;;;5049700;28;20463;-53
2021/11/11 04:19:11;;;;;;;24.40;18.67;;;13.70;85.50;;;;;;5047203;28;20044;-54
2021/11/11 04:21:37;;;;;;;23.92;18.40;;;13.80;86.00;;;;;;5048203;28;20029;-52
2021/11/11 04:24:04;;;;;;;25.52;18.23;;;13.70;85.90;;;;;;5045134;28;20033;-54
2021/11/11 04:26:32;;;;;;;24.67;18.75;;;13.80;86.40;;;;;;5046879;28;20033;-55
2021/11/11 04:29:01;;;;;;;23.00;18.35;;;13.90;85.70;;;;;;5047496;28;20036;-56
2021/11/11 04:31:31;;;;;;;24.60;19.35;;;13.90;85.30;;;;;;5046189;28;20029;-53
2021/11/11 04:34:03;;;;;;;26.17;18.95;;;13.90;83.00;;;;;;5047137;28;20070;-54
2021/11/11 04:36:53;;;;;;;25.10;18.00;;;13.90;83.90;;;;;;5046841;28;20036;-55
2021/11/11 05:00:27;;;;;;;26.08;18.55;;;13.70;85.90;;;;;;5046524;28;20525;-53
2021/11/11 05:05:21;;;;;;;19.50;16.52;;;13.70;86.70;;;;;;5046249;28;20068;-56
2021/11/11 05:07:47;;;;;;;23.35;16.92;;;13.60;86.30;;;;;;5040393;28;20076;-54
2021/11/11 05:10:15;;;;;;;22.00;16.98;;;13.70;86.60;;;;;;5045103;28;20029;-51
2021/11/11 05:12:40;;;;;;;21.77;16.88;;;13.60;86.10;;;;;;5043577;28;20060;-52
2021/11/11 05:15:07;;;;;;;19.85;16.45;;;13.70;86.40;;;;;;5045668;28;20400;-55
2021/11/11 05:17:33;;;;;;;20.85;16.55;;;13.70;85.90;;;;;;5045936;28;20050;-53
2021/11/11 05:19:59;;;;;;;21.65;15.73;;;13.70;86.70;;;;;;5046997;28;20439;-53
2021/11/11 05:22:24;;;;;;;22.80;17.25;;;13.70;86.90;;;;;;5048822;28;20036;-54
2021/11/11 05:24:50;;;;;;;23.55;18.15;;;13.60;85.10;;;;;;5050215;28;20033;-53
2021/11/11 05:27:20;;;;;;;23.73;18.60;;;13.60;86.30;;;;;;5041026;28;20036;-52
2021/11/11 05:29:46;;;;;;;21.73;16.75;;;13.80;86.40;;;;;;5046856;28;20056;-53
2021/11/11 05:32:11;;;;;;;25.13;19.13;;;13.80;85.80;;;;;;5047419;28;20102;-51
2021/11/11 05:34:37;;;;;;;22.50;18.40;;;13.90;85.00;;;;;;5042712;28;20030;-54
2021/11/11 05:37:04;;;;;;;24.92;17.70;;;13.90;84.70;;;;;;5041780;28;20561;-55
2021/11/11 05:39:30;;;;;;;23.42;17.27;;;13.80;84.40;;;;;;5042684;28;20513;-53
2021/11/11 05:41:56;;;;;;;21.92;17.58;;;13.80;83.90;;;;;;5052740;28;20017;-54
2021/11/11 05:44:21;;;;;;;22.17;17.88;;;13.90;83.10;;;;;;5047715;28;20447;-54
2021/11/11 05:46:47;;;;;;;20.55;18.35;;;13.80;84.10;;;;;;5047249;28;20021;-55
2021/11/11 05:49:13;;;;;;;23.38;18.73;;;13.70;82.50;;;;;;5044784;28;20138;-53
2021/11/11 05:51:38;;;;;;;22.45;17.42;;;13.80;83.70;;;;;;5046369;28;20398;-51
2021/11/11 05:54:04;;;;;;;24.88;17.80;;;13.80;83.80;;;;;;5044517;28;20068;-52
2021/11/11 05:56:30;;;;;;;28.27;18.15;;;13.80;83.50;;;;;;5044552;28;20040;-52
2021/11/11 05:58:56;;;;;;;24.10;18.27;;;13.80;83.90;;;;;;5046135;28;20029;-54
2021/11/11 06:01:22;;;;;;;25.45;18.17;;;13.90;83.40;;;;;;5046194;28;20440;-52
2021/11/11 06:03:47;;;;;;;20.08;15.77;;;13.90;83.10;;;;;;5041636;28;20017;-50
2021/11/11 06:06:13;;;;;;;22.58;18.15;;;13.90;82.80;;;;;;5051622;28;20085;-52
2021/11/11 06:08:39;;;;;;;23.98;17.45;;;13.90;83.70;;;;;;5045050;28;20029;-52
2021/11/11 06:11:04;;;;;;;26.50;17.08;;;13.70;82.90;;;;;;5044207;28;20059;-51
2021/11/11 06:13:30;;;;;;;23.48;18.20;;;13.70;81.60;;;;;;5047725;28;20039;-54
2021/11/11 06:15:56;;;;;;;25.80;18.00;;;13.60;83.20;;;;;;5047212;28;20044;-54
2021/11/11 06:18:22;;;;;;;25.15;17.25;;;13.70;83.60;;;;;;5048285;28;20532;-51
2021/11/11 06:21:37;;;;;;;23.60;18.02;;;13.60;83.40;;;;;;5044223;28;20025;-53
2021/11/11 06:24:04;;;;;;;22.27;17.48;;;13.70;82.70;;;;;;5041952;28;20025;-55
2021/11/11 06:26:29;;;;;;;22.70;17.50;;;13.60;83.60;;;;;;5043248;28;20463;-52
2021/11/11 06:28:55;;;;;;;23.17;18.55;;;13.70;83.70;;;;;;5044185;28;20017;-51
2021/11/11 06:31:21;;;;;;;23.58;17.92;;;13.60;82.40;;;;;;5042422;28;20021;-52
2021/11/11 06:33:47;;;;;;;20.38;17.00;;;13.70;83.80;;;;;;5043783;28;20022;-51
2021/11/11 06:36:13;;;;;;;25.63;18.17;;;13.60;81.90;;;;;;5047889;28;20112;-52
2021/11/11 06:38:42;;;;;;;25.42;18.98;;;13.50;83.10;;;;;;5037596;28;20094;-54
2021/11/11 06:41:07;;;;;;;22.73;18.23;;;13.50;82.20;;;;;;5047090;28;20063;-52
2021/11/11 06:43:33;;;;;;;20.75;17.45;;;13.60;83.10;;;;;;5046468;28;20120;-52
2021/11/11 06:46:00;;;;;;;29.63;18.88;;;13.70;83.10;;;;;;5045866;28;20387;-51
2021/11/11 06:48:26;;;;;;;21.45;17.65;;;13.80;82.40;;;;;;5043216;28;20017;-53
2021/11/11 06:50:51;;;;;;;21.13;17.17;;;13.90;82.40;;;;;;5047757;28;20033;-50
2021/11/11 06:53:18;;;;;;;21.75;18.77;;;14.00;82.10;;;;;;5049023;28;20075;-52
2021/11/11 06:55:46;;;;;;;24.65;18.25;;;13.90;82.20;;;;;;5044452;28;20072;-52
2021/11/11 06:58:14;;;;;;;22.65;18.65;;;13.90;81.50;;;;;;5042527;28;20777;-51
2021/11/11 07:00:40;;;;;;;26.90;19.23;;;14.00;81.60;;;;;;5044330;28;20036;-50
2021/11/11 07:03:06;;;;;;;26.63;18.67;;;13.90;81.20;;;;;;5044807;28;20451;-57
2021/11/11 07:05:35;;;;;;;28.67;18.67;;;13.80;81.10;;;;;;5042126;28;20116;-53
2021/11/11 07:08:02;;;;;;;21.48;17.80;;;13.90;80.10;;;;;;5040176;28;20029;-51
2021/11/11 07:10:28;;;;;;;22.20;18.70;;;13.80;80.00;;;;;;5042273;28;20032;-52
2021/11/11 07:12:53;;;;;;;23.35;18.98;;;13.90;80.60;;;;;;5041750;28;20029;-50
2021/11/11 07:15:19;;;;;;;24.23;18.73;;;13.80;80.80;;;;;;5045587;28;20037;-57
2021/11/11 07:17:45;;;;;;;23.35;18.88;;;13.90;81.00;;;;;;5043210;28;20142;-52
2021/11/11 07:20:14;;;;;;;23.95;18.60;;;14.00;81.20;;;;;;5044184;28;20041;-54
2021/11/11 07:22:43;;;;;;;25.48;18.63;;;14.00;79.20;;;;;;5049377;28;20385;-55
2021/11/11 07:25:36;;;;;;;25.85;20.33;;;14.00;79.90;;;;;;5043188;28;20052;-52
2021/11/11 07:28:02;;;;;;;23.88;19.05;;;14.00;81.70;;;;;;5044037;28;20033;-55
2021/11/11 07:30:28;;;;;;;23.83;19.50;;;14.10;81.20;;;;;;5048604;28;20029;-53
2021/11/11 07:32:53;;;;;;;28.10;19.83;;;14.00;81.60;;;;;;5043670;28;20083;-52
2021/11/11 07:35:42;;;;;;;24.58;19.00;;;14.10;80.90;;;;;;5048249;28;20074;-56
2021/11/11 07:38:08;;;;;;;33.03;19.52;;;14.00;82.90;;;;;;5045494;28;20033;-52
2021/11/11 07:40:36;;;;;;;25.65;19.75;;;14.10;82.40;;;;;;5052441;28;20128;-52
2021/11/11 07:43:02;;;;;;;28.38;19.35;;;14.10;81.60;;;;;;5047378;28;20025;-54
2021/11/11 07:45:29;;;;;;;26.05;19.73;;;14.20;81.30;;;;;;5061890;28;20063;-56
2021/11/11 07:47:59;;;;;;;27.13;19.20;;;14.20;80.90;;;;;;5042537;28;20096;-56
2021/11/11 07:50:25;;;;;;;26.73;19.50;;;14.30;80.60;;;;;;5047758;28;20051;-56
2021/11/11 07:52:52;;;;;;;25.38;20.40;;;14.30;81.10;;;;;;5048246;28;20033;-58
2021/11/11 07:55:18;;;;;;;26.33;20.55;;;14.40;81.60;;;;;;5049278;28;20044;-53
2021/11/11 07:57:45;;;;;;;29.63;20.25;;;14.40;81.10;;;;;;5044531;28;20383;-53
2021/11/11 08:00:12;;;;;;;24.13;19.73;;;14.30;82.00;;;;;;5046913;28;20402;-55
2021/11/11 08:02:43;;;;;;;30.38;20.30;;;14.30;81.60;;;;;;5043701;28;20124;-53
2021/11/11 08:05:11;;;;;;;28.33;19.92;;;14.40;82.10;;;;;;5045788;28;20032;-51
2021/11/11 08:07:37;;;;;;;28.52;22.20;;;14.30;82.40;;;;;;5045916;28;20060;-50
2021/11/11 08:10:04;;;;;;;30.08;21.63;;;14.30;83.30;;;;;;5047614;28;20041;-56
2021/11/11 08:12:30;;;;;;;28.33;20.40;;;14.40;84.50;;;;;;5046484;28;20021;-53
2021/11/11 08:14:57;;;;;;;21.50;18.65;;;14.30;84.40;;;;;;5049254;28;20096;-51
2021/11/11 08:17:23;;;;;;;22.92;18.23;;;14.30;84.80;;;;;;5045346;28;20032;-53
2021/11/11 08:19:55;;;;;;;26.08;19.33;;;14.30;85.10;;;;;;5045854;28;20054;-53
2021/11/11 08:22:25;;;;;;;26.67;18.08;;;14.30;85.30;;;;;;5046435;28;20026;-55
2021/11/11 08:24:50;;;;;;;24.73;18.75;;;14.30;85.40;;;;;;5044279;28;20032;-53
2021/11/11 08:27:18;;;;;;;24.30;19.42;;;14.30;85.90;;;;;;5048107;28;20029;-56
2021/11/11 08:29:44;;;;;;;25.25;20.30;;;14.40;85.50;;;;;;5044295;28;20032;-53
2021/11/11 08:32:12;;;;;;;23.73;19.00;;;14.50;85.20;;;;;;5042546;28;20025;-55
2021/11/11 08:34:38;;;;;;;27.27;19.30;;;14.70;85.10;;;;;;5042580;28;20063;-55
2021/11/11 08:37:04;;;;;;;28.02;19.50;;;14.70;86.60;;;;;;5040119;28;20025;-56
2021/11/11 08:39:30;;;;;;;29.35;19.73;;;14.70;87.60;;;;;;5029654;28;20028;-54
2021/11/11 08:41:58;;;;;;;24.85;19.85;;;14.70;86.00;;;;;;5044262;28;20483;-54
2021/11/11 08:44:24;;;;;;;25.63;19.38;;;14.80;84.70;;;;;;5048471;28;20127;-52
2021/11/11 08:46:50;;;;;;;28.30;18.88;;;14.70;83.60;;;;;;5046608;28;20491;-51
2021/11/11 08:49:18;;;;;;;27.55;19.73;;;14.60;83.90;;;;;;5050627;28;20037;-52
2021/11/11 08:51:44;;;;;;;28.92;20.50;;;14.60;84.50;;;;;;5046801;28;20036;-53
2021/11/11 08:54:11;;;;;;;29.50;21.80;;;14.60;83.90;;;;;;5044054;28;20082;-51
2021/11/11 08:56:37;;;;;;;32.20;20.85;;;14.60;83.70;;;;;;5043495;28;20017;-55
2021/11/11 08:59:03;;;;;;;25.83;19.55;;;14.70;81.30;;;;;;5041781;28;20090;-52
2021/11/11 09:01:31;;;;;;;25.40;21.10;;;14.50;83.10;;;;;;5043384;28;20025;-53
2021/11/11 09:03:58;;;;;;;28.13;21.83;;;14.50;83.90;;;;;;5045712;28;20026;-52
2021/11/11 09:06:25;;;;;;;26.50;21.88;;;14.30;83.80;;;;;;5046572;28;20387;-52
2021/11/11 09:08:52;;;;;;;24.23;21.55;;;14.40;84.40;;;;;;5048501;28;20540;-55
2021/11/11 09:11:22;;;;;;;27.58;21.63;;;14.60;84.60;;;;;;5044698;28;20932;-55
2021/11/11 09:13:48;;;;;;;31.63;22.55;;;14.70;84.20;;;;;;5052132;28;20033;-51
2021/11/11 09:16:14;;;;;;;25.95;20.70;;;14.70;83.80;;;;;;5049836;28;20095;-53
2021/11/11 09:18:41;;;;;;;25.95;21.38;;;14.70;83.60;;;;;;5046187;28;20124;-51
2021/11/11 09:21:11;;;;;;;27.48;21.48;;;14.60;84.50;;;;;;5047537;28;20509;-52
2021/11/11 09:23:38;;;;;;;24.75;21.15;;;14.80;83.80;;;;;;5035447;28;20032;-52
2021/11/11 09:26:06;;;;;;;26.20;22.80;;;14.90;82.40;;;;;;5045965;28;20033;-53
2021/11/11 09:28:32;;;;;;;30.05;22.60;;;15.10;91.00;;;;;;5051943;28;20031;-54
2021/11/11 09:30:59;;;;;;;30.33;23.83;;;15.10;81.20;;;;;;5049295;28;20028;-56
2021/11/11 09:33:25;;;;;;;31.10;24.50;;;15.00;80.90;;;;;;5047133;28;20025;-54
2021/11/11 09:35:53;;;;;;;31.27;25.15;;;15.00;80.60;;;;;;5041257;28;20091;-56
2021/11/11 09:38:20;;;;;;;35.05;24.92;;;15.00;81.00;;;;;;5034877;28;20364;-55
2021/11/11 09:40:46;;;;;;;32.60;24.67;;;14.90;81.50;;;;;;5036214;28;20048;-54
2021/11/11 09:43:13;;;;;;;32.67;25.02;;;15.10;81.40;;;;;;5032958;28;20021;-52
2021/11/11 09:45:39;;;;;;;30.92;26.10;;;15.30;80.50;;;;;;5043810;28;20033;-54
2021/11/11 09:48:05;;;;;;;32.92;25.38;;;15.30;80.50;;;;;;5051166;28;20033;-51
2021/11/11 09:50:32;;;;;;;33.50;25.02;;;15.70;79.20;;;;;;5046064;28;20429;-52
2021/11/11 09:53:05;;;;;;;33.72;25.63;;;15.80;85.10;;;;;;5038225;28;20032;-51
2021/11/11 10:01:00;;;;;;;31.80;23.97;;;16.00;76.60;;;;;;5046152;28;20087;-55
2021/11/11 10:03:27;;;;;;;27.77;23.02;;;16.90;86.80;;;;;;5049659;28;20068;-55
2021/11/11 10:05:52;;;;;;;29.77;22.30;;;16.10;83.30;;;;;;5050209;28;20482;-53
2021/11/11 10:08:39;;;;;;;26.17;21.00;;;16.10;81.60;;;;;;5045346;28;20106;-54
2021/11/11 10:11:11;;;;;;;27.40;21.23;;;16.30;94.70;;;;;;5044042;28;20518;-51
2021/11/11 10:13:37;;;;;;;28.95;21.98;;;16.20;83.90;;;;;;5045799;28;20025;-52
2021/11/11 10:16:09;;;;;;;31.58;23.42;;;16.10;79.20;;;;;;5047928;28;20025;-50
2021/11/11 10:18:39;;;;;;;27.80;22.95;;;;;;;;;;5037743;28;20495;-52
2021/11/11 10:22:04;;;;;;;31.65;25.00;;;16.50;73.70;;;;;;5049775;28;20059;-54
2021/11/11 10:24:52;;;;;;;30.83;25.35;;;16.50;89.50;;;;;;5010369;28;20443;-53
2021/11/11 10:27:31;;;;;;;32.58;25.13;;;16.40;89.10;;;;;;5009456;28;20088;-55
2021/11/11 10:30:15;;;;;;;33.67;24.45;;;16.50;89.70;;;;;;5030203;28;20119;-54
2021/11/11 10:33:08;;;;;;;28.70;25.33;;;16.50;88.40;;;;;;5050106;28;20139;-54
2021/11/11 10:35:38;;;;;;;28.30;23.25;;;16.50;89.60;;;;;;5042441;28;20057;-52
2021/11/11 10:38:08;;;;;;;31.67;24.67;;;16.50;90.60;;;;;;5034294;28;20041;-52
2021/11/11 10:40:43;;;;;;;32.78;23.05;;;16.70;95.70;;;;;;5039288;28;20029;-53
2021/11/11 10:43:13;;;;;;;31.38;24.95;;;16.40;92.40;;;;;;5046999;28;20033;-53
2021/11/11 10:45:41;;;;;;;27.67;23.50;;;16.40;91.70;;;;;;5047424;28;20091;-55
2021/11/11 10:48:11;;;;;;;26.25;23.40;;;16.50;91.70;;;;;;5051058;28;20025;-53
2021/11/11 10:50:48;;;;;;;31.30;24.40;;;16.20;91.70;;;;;;5051673;28;20059;-51
2021/11/11 10:53:20;;;;;;;28.55;22.35;;;16.30;91.70;;;;;;5040771;28;20112;-53
2021/11/11 10:55:51;;;;;;;27.63;23.35;;;16.20;91.80;;;;;;5037099;28;20471;-54
2021/11/11 10:58:19;;;;;;;27.58;23.15;;;16.20;91.50;;;;;;5063966;28;20038;-52
2021/11/11 11:00:49;;;;;;;30.40;22.83;;;16.30;91.90;;;;;;5040963;28;20179;-53
2021/11/11 11:03:19;;;;;;;32.80;23.27;;;16.30;91.40;;;;;;5041555;28;20029;-51
2021/11/11 11:06:07;;;;;;;26.08;23.10;;;16.50;91.50;;;;;;5051919;28;20082;-55
2021/11/11 11:08:39;;;;;;;37.03;23.33;;;16.70;91.10;;;;;;5049779;28;20028;-51
2021/11/11 11:11:15;;;;;;;27.95;22.25;;;16.60;90.80;;;;;;5048823;28;20090;-51
2021/11/11 11:13:45;;;;;;;27.80;23.00;;;16.60;84.40;;;;;;5056192;28;20017;-51
2021/11/11 11:16:12;;;;;;;31.48;22.05;;;16.40;84.10;;;;;;5053377;28;20036;-52
2021/11/11 11:19:22;;;;;;;33.20;22.58;;;16.40;83.00;;;;;;5041793;28;20048;-55
2021/11/11 11:21:54;;;;;;;30.67;23.25;;;16.40;82.60;;;;;;5048303;28;20031;-55
2021/11/11 11:24:27;;;;;;;29.90;22.42;;;16.00;82.50;;;;;;5038757;28;20021;-56
2021/11/11 11:26:56;;;;;;;32.58;23.00;;;16.20;83.20;;;;;;5047122;28;20032;-54
2021/11/11 11:29:57;;;;;;;30.02;22.08;;;16.20;83.90;;;;;;5050040;28;20029;-52
2021/11/11 11:32:23;;;;;;;27.88;22.52;;;16.20;82.60;;;;;;5044105;28;20033;-52
2021/11/11 11:34:52;;;;;;;31.45;24.52;;;16.30;84.20;;;;;;5054955;28;20112;-53
2021/11/11 11:37:21;;;;;;;27.88;23.48;;;16.50;85.10;;;;;;5043109;28;20112;-53
2021/11/11 11:39:49;;;;;;;30.67;22.77;;;16.40;85.40;;;;;;5031762;28;20442;-51
2021/11/11 11:42:30;;;;;;;30.33;23.98;;;16.50;84.90;;;;;;5051495;28;20385;-51
2021/11/11 11:45:04;;;;;;;28.65;24.52;;;16.70;84.40;;;;;;5048771;28;20021;-55
2021/11/11 11:47:49;;;;;;;31.02;24.25;;;17.00;83.70;;;;;;5045035;28;20615;-55
2021/11/11 11:50:19;;;;;;;34.42;25.50;;;17.10;75.50;;;;;;5047246;28;20406;-50
2021/11/11 11:52:54;;;;;;;30.00;24.33;;;17.00;79.70;;;;;;5052974;28;20379;-52
2021/11/11 11:55:46;;;;;;;28.92;24.80;;;17.10;72.90;;;;;;5044824;28;20415;-52
2021/11/11 12:01:32;;;;;;;31.58;24.95;;;16.90;75.50;;;;;;4995396;28;20046;-55
2021/11/11 12:04:17;;;;;;;36.42;24.95;;;17.00;75.80;;;;;;5006602;28;20034;-54
2021/11/11 12:07:03;;;;;;;34.97;26.70;;;16.80;75.40;;;;;;5029358;28;20048;-56
2021/11/11 12:09:48;;;;;;;31.67;25.35;;;16.60;76.20;;;;;;5052324;28;20036;-51
2021/11/11 12:15:19;;;;;;;30.17;25.38;;;16.50;77.00;;;;;;5039913;28;20120;-56
2021/11/11 12:34:12;;;;;;;30.52;26.05;;;16.00;79.30;;;;;;5037693;28;20084;-52
2021/11/11 12:39:04;;;;;;;32.28;26.42;;;16.10;78.50;;;;;;5041078;28;20024;-54
2021/11/11 12:41:20;;;;;;;31.50;26.02;;;16.10;80.10;;;;;;5039368;28;20041;-53
2021/11/11 12:44:13;;;;;;;36.20;27.35;;;16.10;79.50;;;;;;5067226;28;20028;-53
2021/11/11 12:46:44;;;;;;;35.42;28.42;;;16.20;79.70;;;;;;5042769;28;20027;-54
2021/11/11 12:49:28;;;;;;;34.92;26.73;;;16.10;79.90;;;;;;5034235;28;20100;-52
2021/11/11 12:52:12;;;;;;;29.92;25.73;;;16.20;79.40;;;;;;5044213;28;20066;-53
2021/11/11 12:54:38;;;;;;;29.95;25.25;;;16.40;79.50;;;;;;5039026;28;20052;-52
2021/11/11 12:57:05;;;;;;;35.08;26.08;;;16.40;79.10;;;;;;5051471;28;20051;-52
2021/11/11 12:59:36;;;;;;;33.05;25.10;;;16.30;80.10;;;;;;5052373;28;20037;-51
2021/11/11 13:02:06;;;;;;;28.98;23.88;;;16.40;79.80;;;;;;5052207;28;20086;-51
2021/11/11 13:04:53;;;;;;;31.33;25.08;;;16.50;79.00;;;;;;5051959;28;20041;-52
2021/11/11 13:07:30;;;;;;;33.70;26.52;;;16.50;78.80;;;;;;5045564;28;20389;-53
2021/11/11 13:10:04;;;;;;;30.77;25.75;;;16.60;78.50;;;;;;5052654;28;20029;-53
2021/11/11 13:12:30;;;;;;;31.77;25.08;;;16.50;78.70;;;;;;5051865;28;20046;-52
2021/11/11 13:15:16;;;;;;;31.25;23.02;;;16.40;78.00;;;;;;5040509;28;20022;-55
2021/11/11 13:17:46;;;;;;;36.13;26.00;;;16.20;79.20;;;;;;5041650;28;20031;-53
2021/11/11 13:23:33;;;;;;;31.40;24.60;;;16.50;79.20;;;;;;5033956;28;20336;-55
2021/11/11 15:19:45;;;;;;;30.58;23.65;;;15.20;88.50;;;;;;5046698;28;20045;-52
2021/11/11 15:46:34;;;;;;;33.80;25.73;;;14.90;90.30;;;;;;5046223;28;20129;-51
2021/11/11 16:01:37;;;;;;;28.17;22.95;;;14.90;90.20;;;;;;5046157;28;20060;-51
2021/11/11 16:20:46;;;;;;;30.20;21.30;;;14.30;91.90;;;;;;5045715;28;20056;-54
2021/11/11 16:23:20;;;;;;;30.58;23.98;;;14.30;91.60;;;;;;5048660;28;20025;-52
2021/11/11 16:28:30;;;;;;;26.00;22.17;;;14.40;91.60;;;;;;5043757;28;20442;-54